sensor_id;sensor_type;location;lat;lon;timestamp;pressure;altitude;pressure_sealevel;temperature;humidity
67373;BME280;54257;54.496;18.412;2023-05-12T00:00:54;100544.11;;;9.19;53.86
67373;BME280;54257;54.496;18.412;2023-05-12T00:03:22;100541.40;;;9.14;53.92
67373;BME280;54257;54.496;18.412;2023-05-12T00:05:49;100540.70;;;9.08;53.88
67373;BME280;54257;54.496;18.412;2023-05-12T00:08:16;100542.45;;;9.04;54.19
67373;BME280;54257;54.496;18.412;2023-05-12T00:10:43;100543.20;;;9.01;54.17
67373;BME280;54257;54.496;18.412;2023-05-12T00:13:10;100541.60;;;8.99;54.29
67373;BME280;54257;54.496;18.412;2023-05-12T00:15:37;100539.98;;;8.96;54.32
67373;BME280;54257;54.496;18.412;2023-05-12T00:18:03;100542.11;;;8.94;54.17
67373;BME280;54257;54.496;18.412;2023-05-12T00:20:30;100543.39;;;8.90;54.46
67373;BME280;54257;54.496;18.412;2023-05-12T00:22:57;100542.84;;;8.85;54.49
67373;BME280;54257;54.496;18.412;2023-05-12T00:25:24;100535.88;;;8.80;54.51
67373;BME280;54257;54.496;18.412;2023-05-12T00:27:50;100538.04;;;8.79;54.70
67373;BME280;54257;54.496;18.412;2023-05-12T00:30:17;100541.35;;;8.75;54.55
67373;BME280;54257;54.496;18.412;2023-05-12T00:32:44;100539.89;;;8.73;54.75
67373;BME280;54257;54.496;18.412;2023-05-12T00:35:11;100542.90;;;8.71;54.81
67373;BME280;54257;54.496;18.412;2023-05-12T00:37:37;100545.84;;;8.67;54.89
67373;BME280;54257;54.496;18.412;2023-05-12T00:40:05;100550.04;;;8.65;54.94
67373;BME280;54257;54.496;18.412;2023-05-12T00:42:33;100551.09;;;8.62;54.93
67373;BME280;54257;54.496;18.412;2023-05-12T00:45:01;100557.51;;;8.60;54.86
67373;BME280;54257;54.496;18.412;2023-05-12T00:47:28;100558.42;;;8.57;54.73
67373;BME280;54257;54.496;18.412;2023-05-12T00:49:55;100561.20;;;8.53;54.76
67373;BME280;54257;54.496;18.412;2023-05-12T00:52:23;100561.39;;;8.49;54.93
67373;BME280;54257;54.496;18.412;2023-05-12T00:54:50;100562.77;;;8.44;54.81
67373;BME280;54257;54.496;18.412;2023-05-12T00:57:17;100565.17;;;8.40;54.95
67373;BME280;54257;54.496;18.412;2023-05-12T00:59:44;100565.80;;;8.34;54.91
67373;BME280;54257;54.496;18.412;2023-05-12T01:02:11;100562.70;;;8.29;55.07
67373;BME280;54257;54.496;18.412;2023-05-12T01:04:38;100565.06;;;8.24;55.30
67373;BME280;54257;54.496;18.412;2023-05-12T01:07:09;100565.02;;;8.17;55.25
67373;BME280;54257;54.496;18.412;2023-05-12T01:09:38;100572.48;;;8.12;55.47
67373;BME280;54257;54.496;18.412;2023-05-12T01:12:05;100574.27;;;8.09;55.44
67373;BME280;54257;54.496;18.412;2023-05-12T01:14:31;100576.57;;;8.07;55.71
67373;BME280;54257;54.496;18.412;2023-05-12T01:17:01;100573.02;;;8.04;55.87
67373;BME280;54257;54.496;18.412;2023-05-12T01:19:40;100579.86;;;8.05;55.91
67373;BME280;54257;54.496;18.412;2023-05-12T01:22:09;100582.14;;;8.02;55.81
67373;BME280;54257;54.496;18.412;2023-05-12T01:24:45;100584.19;;;7.97;55.82
67373;BME280;54257;54.496;18.412;2023-05-12T01:27:15;100583.54;;;7.94;55.84
67373;BME280;54257;54.496;18.412;2023-05-12T01:29:44;100584.98;;;7.91;56.05
67373;BME280;54257;54.496;18.412;2023-05-12T01:32:13;100586.13;;;7.85;56.27
67373;BME280;54257;54.496;18.412;2023-05-12T01:34:41;100588.82;;;7.80;56.12
67373;BME280;54257;54.496;18.412;2023-05-12T01:37:09;100587.26;;;7.75;56.23
67373;BME280;54257;54.496;18.412;2023-05-12T01:39:36;100591.21;;;7.72;56.37
67373;BME280;54257;54.496;18.412;2023-05-12T01:42:04;100593.16;;;7.69;56.54
67373;BME280;54257;54.496;18.412;2023-05-12T01:44:31;100593.58;;;7.67;56.42
67373;BME280;54257;54.496;18.412;2023-05-12T01:46:59;100598.58;;;7.65;56.27
67373;BME280;54257;54.496;18.412;2023-05-12T01:49:27;100597.23;;;7.60;56.57
67373;BME280;54257;54.496;18.412;2023-05-12T01:51:54;100600.98;;;7.56;56.37
67373;BME280;54257;54.496;18.412;2023-05-12T01:54:21;100598.60;;;7.52;56.44
67373;BME280;54257;54.496;18.412;2023-05-12T01:56:48;100600.04;;;7.49;56.51
67373;BME280;54257;54.496;18.412;2023-05-12T01:59:15;100599.38;;;7.45;56.60
67373;BME280;54257;54.496;18.412;2023-05-12T02:01:42;100600.46;;;7.43;56.61
67373;BME280;54257;54.496;18.412;2023-05-12T02:04:08;100602.58;;;7.41;56.72
67373;BME280;54257;54.496;18.412;2023-05-12T02:06:35;100605.23;;;7.39;56.75
67373;BME280;54257;54.496;18.412;2023-05-12T02:09:02;100607.16;;;7.36;56.84
67373;BME280;54257;54.496;18.412;2023-05-12T02:11:29;100606.23;;;7.34;56.96
67373;BME280;54257;54.496;18.412;2023-05-12T02:13:56;100602.61;;;7.33;57.05
67373;BME280;54257;54.496;18.412;2023-05-12T02:16:24;100601.38;;;7.32;57.12
67373;BME280;54257;54.496;18.412;2023-05-12T02:18:50;100603.56;;;7.31;57.11
67373;BME280;54257;54.496;18.412;2023-05-12T02:21:17;100602.34;;;7.30;57.14
67373;BME280;54257;54.496;18.412;2023-05-12T02:23:44;100601.77;;;7.28;57.02
67373;BME280;54257;54.496;18.412;2023-05-12T02:26:11;100601.19;;;7.26;57.05
67373;BME280;54257;54.496;18.412;2023-05-12T02:28:37;100601.05;;;7.24;57.06
67373;BME280;54257;54.496;18.412;2023-05-12T02:31:04;100603.97;;;7.20;57.11
67373;BME280;54257;54.496;18.412;2023-05-12T02:33:31;100601.23;;;7.16;57.38
67373;BME280;54257;54.496;18.412;2023-05-12T02:35:58;100607.05;;;7.12;57.66
67373;BME280;54257;54.496;18.412;2023-05-12T02:38:25;100604.05;;;7.05;57.73
67373;BME280;54257;54.496;18.412;2023-05-12T02:40:53;100608.08;;;7.00;57.63
67373;BME280;54257;54.496;18.412;2023-05-12T02:43:20;100609.61;;;6.96;57.72
67373;BME280;54257;54.496;18.412;2023-05-12T02:45:47;100611.02;;;6.93;57.63
67373;BME280;54257;54.496;18.412;2023-05-12T02:48:14;100612.39;;;6.90;57.75
67373;BME280;54257;54.496;18.412;2023-05-12T02:50:41;100613.60;;;6.86;57.72
67373;BME280;54257;54.496;18.412;2023-05-12T02:53:08;100613.18;;;6.84;57.74
67373;BME280;54257;54.496;18.412;2023-05-12T02:55:37;100613.61;;;6.83;57.88
67373;BME280;54257;54.496;18.412;2023-05-12T02:58:04;100612.54;;;6.81;57.71
67373;BME280;54257;54.496;18.412;2023-05-12T03:00:31;100613.13;;;6.79;57.78
67373;BME280;54257;54.496;18.412;2023-05-12T03:02:58;100617.08;;;6.76;58.13
67373;BME280;54257;54.496;18.412;2023-05-12T03:05:28;100618.48;;;6.73;58.07
67373;BME280;54257;54.496;18.412;2023-05-12T03:07:56;100616.02;;;6.71;58.15
67373;BME280;54257;54.496;18.412;2023-05-12T03:10:24;100613.92;;;6.69;58.29
67373;BME280;54257;54.496;18.412;2023-05-12T03:12:51;100617.40;;;6.67;58.46
67373;BME280;54257;54.496;18.412;2023-05-12T03:15:18;100618.87;;;6.66;58.53
67373;BME280;54257;54.496;18.412;2023-05-12T03:17:44;100614.25;;;6.65;58.52
67373;BME280;54257;54.496;18.412;2023-05-12T03:20:11;100614.38;;;6.64;58.48
67373;BME280;54257;54.496;18.412;2023-05-12T03:22:38;100615.92;;;6.65;58.67
67373;BME280;54257;54.496;18.412;2023-05-12T03:25:07;100616.96;;;6.65;58.92
67373;BME280;54257;54.496;18.412;2023-05-12T03:27:35;100618.60;;;6.64;59.01
67373;BME280;54257;54.496;18.412;2023-05-12T03:30:03;100618.65;;;6.61;59.39
67373;BME280;54257;54.496;18.412;2023-05-12T03:32:31;100618.38;;;6.59;59.39
67373;BME280;54257;54.496;18.412;2023-05-12T03:34:57;100624.42;;;6.57;59.50
67373;BME280;54257;54.496;18.412;2023-05-12T03:37:24;100629.71;;;6.58;59.53
67373;BME280;54257;54.496;18.412;2023-05-12T03:39:51;100624.79;;;6.58;59.53
67373;BME280;54257;54.496;18.412;2023-05-12T03:42:21;100621.28;;;6.59;59.83
67373;BME280;54257;54.496;18.412;2023-05-12T03:44:50;100624.43;;;6.61;59.86
67373;BME280;54257;54.496;18.412;2023-05-12T03:47:17;100621.34;;;6.60;60.08
67373;BME280;54257;54.496;18.412;2023-05-12T03:49:44;100623.36;;;6.64;60.13
67373;BME280;54257;54.496;18.412;2023-05-12T03:52:11;100624.99;;;6.67;60.27
67373;BME280;54257;54.496;18.412;2023-05-12T03:54:38;100622.05;;;6.69;60.41
67373;BME280;54257;54.496;18.412;2023-05-12T03:57:05;100624.22;;;6.72;60.57
67373;BME280;54257;54.496;18.412;2023-05-12T03:59:32;100627.35;;;6.74;60.91
67373;BME280;54257;54.496;18.412;2023-05-12T04:01:59;100628.85;;;6.77;60.88
67373;BME280;54257;54.496;18.412;2023-05-12T04:04:25;100625.77;;;6.81;61.02
67373;BME280;54257;54.496;18.412;2023-05-12T04:06:52;100630.22;;;6.85;61.01
67373;BME280;54257;54.496;18.412;2023-05-12T04:09:19;100631.59;;;6.90;61.19
67373;BME280;54257;54.496;18.412;2023-05-12T04:11:46;100633.38;;;6.96;61.46
67373;BME280;54257;54.496;18.412;2023-05-12T04:14:13;100633.43;;;7.01;61.79
67373;BME280;54257;54.496;18.412;2023-05-12T04:16:40;100635.48;;;7.06;61.89
67373;BME280;54257;54.496;18.412;2023-05-12T04:19:07;100633.31;;;7.11;61.89
67373;BME280;54257;54.496;18.412;2023-05-12T04:21:33;100633.05;;;7.17;61.79
67373;BME280;54257;54.496;18.412;2023-05-12T04:24:00;100636.02;;;7.23;62.16
67373;BME280;54257;54.496;18.412;2023-05-12T04:26:30;100637.64;;;7.29;62.41
67373;BME280;54257;54.496;18.412;2023-05-12T04:28:57;100638.56;;;7.35;62.33
67373;BME280;54257;54.496;18.412;2023-05-12T04:31:24;100640.38;;;7.42;62.53
67373;BME280;54257;54.496;18.412;2023-05-12T04:33:51;100637.60;;;7.49;62.75
67373;BME280;54257;54.496;18.412;2023-05-12T04:36:18;100640.59;;;7.56;63.16
67373;BME280;54257;54.496;18.412;2023-05-12T04:38:46;100642.58;;;7.63;63.63
67373;BME280;54257;54.496;18.412;2023-05-12T04:41:12;100642.33;;;7.71;63.52
67373;BME280;54257;54.496;18.412;2023-05-12T04:43:39;100644.34;;;7.78;63.60
67373;BME280;54257;54.496;18.412;2023-05-12T04:46:06;100643.58;;;7.85;63.38
67373;BME280;54257;54.496;18.412;2023-05-12T04:48:33;100647.80;;;7.93;63.10
67373;BME280;54257;54.496;18.412;2023-05-12T04:50:59;100648.76;;;8.00;62.89
67373;BME280;54257;54.496;18.412;2023-05-12T04:53:27;100652.27;;;8.07;62.73
67373;BME280;54257;54.496;18.412;2023-05-12T04:55:53;100652.38;;;8.15;62.68
67373;BME280;54257;54.496;18.412;2023-05-12T04:58:22;100654.84;;;8.26;62.74
67373;BME280;54257;54.496;18.412;2023-05-12T05:00:49;100655.44;;;8.42;63.03
67373;BME280;54257;54.496;18.412;2023-05-12T05:03:15;100658.38;;;8.56;62.93
67373;BME280;54257;54.496;18.412;2023-05-12T05:05:43;100654.69;;;8.73;62.94
67373;BME280;54257;54.496;18.412;2023-05-12T05:08:09;100655.39;;;8.88;62.65
67373;BME280;54257;54.496;18.412;2023-05-12T05:10:36;100654.07;;;9.04;62.69
67373;BME280;54257;54.496;18.412;2023-05-12T05:13:03;100651.65;;;9.24;62.16
67373;BME280;54257;54.496;18.412;2023-05-12T05:15:30;100648.13;;;9.46;60.53
67373;BME280;54257;54.496;18.412;2023-05-12T05:17:57;100645.98;;;9.70;59.69
67373;BME280;54257;54.496;18.412;2023-05-12T05:20:25;100649.59;;;9.88;59.08
67373;BME280;54257;54.496;18.412;2023-05-12T05:22:54;100650.35;;;10.07;58.53
67373;BME280;54257;54.496;18.412;2023-05-12T05:25:20;100649.89;;;10.25;58.05
67373;BME280;54257;54.496;18.412;2023-05-12T05:27:50;100649.98;;;10.46;56.91
67373;BME280;54257;54.496;18.412;2023-05-12T05:30:17;100650.48;;;10.64;56.02
67373;BME280;54257;54.496;18.412;2023-05-12T05:32:45;100653.64;;;10.86;54.19
67373;BME280;54257;54.496;18.412;2023-05-12T05:35:11;100653.48;;;11.07;54.13
67373;BME280;54257;54.496;18.412;2023-05-12T05:37:38;100653.14;;;11.27;54.05
67373;BME280;54257;54.496;18.412;2023-05-12T05:40:06;100659.55;;;11.51;52.53
67373;BME280;54257;54.496;18.412;2023-05-12T05:42:33;100657.25;;;11.76;51.06
67373;BME280;54257;54.496;18.412;2023-05-12T05:45:00;100658.21;;;12.03;51.05
67373;BME280;54257;54.496;18.412;2023-05-12T05:47:26;100661.87;;;12.30;51.67
67373;BME280;54257;54.496;18.412;2023-05-12T05:49:53;100655.45;;;12.60;50.53
67373;BME280;54257;54.496;18.412;2023-05-12T05:52:21;100662.89;;;12.90;48.38
67373;BME280;54257;54.496;18.412;2023-05-12T05:54:50;100662.86;;;13.16;48.18
67373;BME280;54257;54.496;18.412;2023-05-12T05:57:17;100665.37;;;13.42;46.76
67373;BME280;54257;54.496;18.412;2023-05-12T05:59:44;100664.11;;;13.71;47.80
67373;BME280;54257;54.496;18.412;2023-05-12T06:02:11;100669.19;;;14.02;45.72
67373;BME280;54257;54.496;18.412;2023-05-12T06:04:38;100669.61;;;14.32;46.31
67373;BME280;54257;54.496;18.412;2023-05-12T06:07:06;100670.73;;;14.66;44.01
67373;BME280;54257;54.496;18.412;2023-05-12T06:09:33;100675.80;;;14.89;42.91
67373;BME280;54257;54.496;18.412;2023-05-12T06:12:00;100675.65;;;15.08;41.70
67373;BME280;54257;54.496;18.412;2023-05-12T06:14:27;100674.48;;;15.32;42.71
67373;BME280;54257;54.496;18.412;2023-05-12T06:16:57;100676.65;;;15.61;42.83
67373;BME280;54257;54.496;18.412;2023-05-12T06:19:24;100679.64;;;15.93;40.81
67373;BME280;54257;54.496;18.412;2023-05-12T06:21:51;100676.83;;;16.10;39.59
67373;BME280;54257;54.496;18.412;2023-05-12T06:24:18;100678.95;;;16.24;39.60
67373;BME280;54257;54.496;18.412;2023-05-12T06:26:45;100675.61;;;16.46;39.35
67373;BME280;54257;54.496;18.412;2023-05-12T06:29:11;100681.05;;;16.68;38.27
67373;BME280;54257;54.496;18.412;2023-05-12T06:31:38;100677.84;;;16.86;38.51
67373;BME280;54257;54.496;18.412;2023-05-12T06:34:05;100680.14;;;17.11;39.59
67373;BME280;54257;54.496;18.412;2023-05-12T06:36:32;100679.30;;;17.47;38.35
67373;BME280;54257;54.496;18.412;2023-05-12T06:39:00;100681.90;;;17.78;37.44
67373;BME280;54257;54.496;18.412;2023-05-12T06:41:27;100676.88;;;17.90;35.05
67373;BME280;54257;54.496;18.412;2023-05-12T06:43:54;100682.74;;;17.93;35.48
67373;BME280;54257;54.496;18.412;2023-05-12T06:46:21;100682.55;;;18.09;34.78
67373;BME280;54257;54.496;18.412;2023-05-12T06:48:48;100684.59;;;18.16;34.73
67373;BME280;54257;54.496;18.412;2023-05-12T06:51:15;100683.70;;;18.27;34.56
67373;BME280;54257;54.496;18.412;2023-05-12T06:53:41;100685.91;;;18.37;34.34
67373;BME280;54257;54.496;18.412;2023-05-12T06:56:08;100691.20;;;18.56;34.22
67373;BME280;54257;54.496;18.412;2023-05-12T06:58:36;100683.05;;;18.64;33.47
67373;BME280;54257;54.496;18.412;2023-05-12T07:01:03;100684.93;;;18.67;34.34
67373;BME280;54257;54.496;18.412;2023-05-12T07:03:31;100688.13;;;18.89;34.03
67373;BME280;54257;54.496;18.412;2023-05-12T07:05:59;100685.80;;;19.04;33.25
67373;BME280;54257;54.496;18.412;2023-05-12T07:08:26;100685.73;;;19.13;32.38
67373;BME280;54257;54.496;18.412;2023-05-12T07:10:53;100683.23;;;19.24;32.89
67373;BME280;54257;54.496;18.412;2023-05-12T07:13:20;100686.81;;;19.31;32.09
67373;BME280;54257;54.496;18.412;2023-05-12T07:15:47;100687.70;;;19.50;32.93
67373;BME280;54257;54.496;18.412;2023-05-12T07:18:14;100684.99;;;19.66;32.44
67373;BME280;54257;54.496;18.412;2023-05-12T07:20:42;100684.23;;;19.74;31.91
67373;BME280;54257;54.496;18.412;2023-05-12T07:23:09;100689.92;;;19.77;31.15
67373;BME280;54257;54.496;18.412;2023-05-12T07:25:36;100687.83;;;19.96;31.89
67373;BME280;54257;54.496;18.412;2023-05-12T07:28:03;100691.49;;;20.10;30.91
67373;BME280;54257;54.496;18.412;2023-05-12T07:30:30;100696.19;;;20.09;31.18
67373;BME280;54257;54.496;18.412;2023-05-12T07:32:57;100694.51;;;20.05;30.82
67373;BME280;54257;54.496;18.412;2023-05-12T07:35:26;100699.69;;;20.07;31.12
67373;BME280;54257;54.496;18.412;2023-05-12T07:37:53;100699.98;;;20.10;30.58
67373;BME280;54257;54.496;18.412;2023-05-12T07:40:20;100697.34;;;20.17;30.27
67373;BME280;54257;54.496;18.412;2023-05-12T07:42:47;100693.31;;;20.33;30.23
67373;BME280;54257;54.496;18.412;2023-05-12T07:45:14;100693.33;;;20.50;30.13
67373;BME280;54257;54.496;18.412;2023-05-12T07:47:49;100690.39;;;20.77;30.77
67373;BME280;54257;54.496;18.412;2023-05-12T07:50:17;100694.90;;;21.01;29.62
67373;BME280;54257;54.496;18.412;2023-05-12T07:52:49;100695.36;;;21.07;29.15
67373;BME280;54257;54.496;18.412;2023-05-12T07:55:19;100693.13;;;21.04;28.60
67373;BME280;54257;54.496;18.412;2023-05-12T07:57:48;100691.86;;;20.95;28.75
67373;BME280;54257;54.496;18.412;2023-05-12T08:00:16;100696.57;;;21.18;29.38
67373;BME280;54257;54.496;18.412;2023-05-12T08:02:43;100694.94;;;21.46;28.92
67373;BME280;54257;54.496;18.412;2023-05-12T08:05:10;100698.79;;;21.65;27.74
67373;BME280;54257;54.496;18.412;2023-05-12T08:07:38;100697.55;;;21.46;27.78
67373;BME280;54257;54.496;18.412;2023-05-12T08:10:05;100696.42;;;21.51;27.99
67373;BME280;54257;54.496;18.412;2023-05-12T08:12:32;100701.37;;;21.56;28.43
67373;BME280;54257;54.496;18.412;2023-05-12T08:14:59;100701.31;;;21.50;27.78
67373;BME280;54257;54.496;18.412;2023-05-12T08:17:26;100703.58;;;21.39;27.85
67373;BME280;54257;54.496;18.412;2023-05-12T08:19:53;100705.29;;;21.51;28.02
67373;BME280;54257;54.496;18.412;2023-05-12T08:22:19;100704.00;;;21.76;28.39
67373;BME280;54257;54.496;18.412;2023-05-12T08:24:46;100705.32;;;22.00;27.67
67373;BME280;54257;54.496;18.412;2023-05-12T08:27:13;100711.11;;;21.96;26.65
67373;BME280;54257;54.496;18.412;2023-05-12T08:29:40;100710.30;;;21.63;27.33
67373;BME280;54257;54.496;18.412;2023-05-12T08:32:07;100715.87;;;21.64;27.11
67373;BME280;54257;54.496;18.412;2023-05-12T08:34:34;100717.52;;;21.36;27.24
67373;BME280;54257;54.496;18.412;2023-05-12T08:37:01;100718.13;;;21.42;27.94
67373;BME280;54257;54.496;18.412;2023-05-12T08:39:28;100721.84;;;21.38;27.77
67373;BME280;54257;54.496;18.412;2023-05-12T08:42:29;100722.33;;;21.28;27.46
67373;BME280;54257;54.496;18.412;2023-05-12T08:44:58;100722.86;;;21.27;27.93
67373;BME280;54257;54.496;18.412;2023-05-12T08:47:26;100723.91;;;21.39;28.87
67373;BME280;54257;54.496;18.412;2023-05-12T08:49:59;100715.42;;;21.69;28.67
67373;BME280;54257;54.496;18.412;2023-05-12T08:52:32;100716.67;;;22.08;28.33
67373;BME280;54257;54.496;18.412;2023-05-12T08:54:59;100713.78;;;22.50;27.95
67373;BME280;54257;54.496;18.412;2023-05-12T08:57:27;100718.81;;;22.59;26.87
67373;BME280;54257;54.496;18.412;2023-05-12T08:59:55;100720.02;;;22.59;27.19
67373;BME280;54257;54.496;18.412;2023-05-12T09:02:22;100718.83;;;22.66;27.57
67373;BME280;54257;54.496;18.412;2023-05-12T09:04:51;100716.36;;;22.76;26.95
67373;BME280;54257;54.496;18.412;2023-05-12T09:07:24;100715.55;;;22.65;26.73
67373;BME280;54257;54.496;18.412;2023-05-12T09:10:02;100715.63;;;22.45;26.83
67373;BME280;54257;54.496;18.412;2023-05-12T09:12:35;100712.33;;;22.17;27.24
67373;BME280;54257;54.496;18.412;2023-05-12T09:15:06;100704.89;;;22.24;27.73
67373;BME280;54257;54.496;18.412;2023-05-12T09:17:36;100703.20;;;22.64;28.56
67373;BME280;54257;54.496;18.412;2023-05-12T09:20:04;100705.30;;;22.72;27.64
67373;BME280;54257;54.496;18.412;2023-05-12T09:22:33;100708.05;;;22.82;27.31
67373;BME280;54257;54.496;18.412;2023-05-12T09:25:17;100708.89;;;22.84;27.03
67373;BME280;54257;54.496;18.412;2023-05-12T09:27:52;100701.38;;;23.01;27.53
67373;BME280;54257;54.496;18.412;2023-05-12T09:30:29;100700.30;;;22.86;26.36
67373;BME280;54257;54.496;18.412;2023-05-12T09:33:11;100698.64;;;22.99;27.44
67373;BME280;54257;54.496;18.412;2023-05-12T09:35:43;100694.17;;;23.27;27.69
67373;BME280;54257;54.496;18.412;2023-05-12T09:38:22;100694.12;;;23.57;27.22
67373;BME280;54257;54.496;18.412;2023-05-12T09:40:49;100701.02;;;23.81;26.68
67373;BME280;54257;54.496;18.412;2023-05-12T09:43:16;100699.73;;;23.90;26.94
67373;BME280;54257;54.496;18.412;2023-05-12T09:45:43;100696.91;;;23.98;26.16
67373;BME280;54257;54.496;18.412;2023-05-12T09:48:12;100695.24;;;24.08;25.82
67373;BME280;54257;54.496;18.412;2023-05-12T09:50:48;100698.44;;;24.13;25.71
67373;BME280;54257;54.496;18.412;2023-05-12T09:53:18;100686.60;;;24.31;25.93
67373;BME280;54257;54.496;18.412;2023-05-12T09:55:46;100681.01;;;24.44;25.36
67373;BME280;54257;54.496;18.412;2023-05-12T09:58:19;100679.80;;;24.55;25.64
67373;BME280;54257;54.496;18.412;2023-05-12T10:00:46;100680.48;;;24.73;26.03
67373;BME280;54257;54.496;18.412;2023-05-12T10:03:21;100680.61;;;24.86;25.62
67373;BME280;54257;54.496;18.412;2023-05-12T10:05:59;100676.56;;;24.64;25.53
67373;BME280;54257;54.496;18.412;2023-05-12T10:12:17;100675.23;;;24.74;25.28
67373;BME280;54257;54.496;18.412;2023-05-12T10:14:55;100668.02;;;24.74;25.87
67373;BME280;54257;54.496;18.412;2023-05-12T10:17:25;100677.08;;;24.93;25.37
67373;BME280;54257;54.496;18.412;2023-05-12T10:19:53;100667.19;;;24.96;25.26
67373;BME280;54257;54.496;18.412;2023-05-12T10:22:21;100666.26;;;25.04;25.54
67373;BME280;54257;54.496;18.412;2023-05-12T10:24:49;100671.44;;;25.17;25.34
67373;BME280;54257;54.496;18.412;2023-05-12T10:27:20;100665.69;;;25.05;24.66
67373;BME280;54257;54.496;18.412;2023-05-12T10:29:48;100667.71;;;25.14;25.08
67373;BME280;54257;54.496;18.412;2023-05-12T10:32:16;100666.47;;;25.35;25.23
67373;BME280;54257;54.496;18.412;2023-05-12T10:34:45;100666.52;;;25.55;24.88
67373;BME280;54257;54.496;18.412;2023-05-12T10:37:12;100664.91;;;25.82;24.54
67373;BME280;54257;54.496;18.412;2023-05-12T10:39:50;100661.80;;;25.86;23.91
67373;BME280;54257;54.496;18.412;2023-05-12T10:42:22;100657.08;;;25.81;24.27
67373;BME280;54257;54.496;18.412;2023-05-12T10:44:55;100663.51;;;25.87;24.52
67373;BME280;54257;54.496;18.412;2023-05-12T10:47:23;100659.95;;;25.94;23.73
67373;BME280;54257;54.496;18.412;2023-05-12T10:49:55;100658.88;;;25.94;23.65
67373;BME280;54257;54.496;18.412;2023-05-12T10:52:25;100652.11;;;25.93;22.79
67373;BME280;54257;54.496;18.412;2023-05-12T10:54:59;100647.88;;;25.79;23.69
67373;BME280;54257;54.496;18.412;2023-05-12T10:57:26;100655.68;;;25.70;23.94
67373;BME280;54257;54.496;18.412;2023-05-12T10:59:58;100660.02;;;25.55;23.90
67373;BME280;54257;54.496;18.412;2023-05-12T11:02:27;100658.30;;;25.50;23.63
67373;BME280;54257;54.496;18.412;2023-05-12T11:04:58;100656.21;;;25.39;23.60
67373;BME280;54257;54.496;18.412;2023-05-12T11:07:30;100656.64;;;25.52;24.23
67373;BME280;54257;54.496;18.412;2023-05-12T11:10:00;100656.91;;;25.70;23.52
67373;BME280;54257;54.496;18.412;2023-05-12T11:12:29;100648.58;;;25.79;23.72
67373;BME280;54257;54.496;18.412;2023-05-12T11:15:02;100653.83;;;25.84;23.69
67373;BME280;54257;54.496;18.412;2023-05-12T11:17:37;100654.29;;;25.76;22.82
67373;BME280;54257;54.496;18.412;2023-05-12T11:20:06;100654.12;;;25.80;22.80
67373;BME280;54257;54.496;18.412;2023-05-12T11:22:35;100655.02;;;25.74;22.71
67373;BME280;54257;54.496;18.412;2023-05-12T11:25:10;100657.13;;;25.54;22.92
67373;BME280;54257;54.496;18.412;2023-05-12T11:27:47;100660.92;;;25.29;22.86
67373;BME280;54257;54.496;18.412;2023-05-12T11:30:15;100658.62;;;24.96;22.58
67373;BME280;54257;54.496;18.412;2023-05-12T11:32:47;100661.38;;;24.86;22.68
67373;BME280;54257;54.496;18.412;2023-05-12T11:35:16;100663.34;;;24.56;22.57
67373;BME280;54257;54.496;18.412;2023-05-12T11:37:47;100659.42;;;24.64;22.96
67373;BME280;54257;54.496;18.412;2023-05-12T11:40:32;100661.29;;;24.43;22.34
67373;BME280;54257;54.496;18.412;2023-05-12T11:43:09;100645.73;;;24.44;23.75
67373;BME280;54257;54.496;18.412;2023-05-12T11:45:40;100652.98;;;24.64;22.52
67373;BME280;54257;54.496;18.412;2023-05-12T11:48:12;100657.58;;;24.44;22.23
67373;BME280;54257;54.496;18.412;2023-05-12T11:50:42;100661.40;;;24.57;22.15
67373;BME280;54257;54.496;18.412;2023-05-12T11:53:12;100657.39;;;24.74;22.06
67373;BME280;54257;54.496;18.412;2023-05-12T11:55:55;100657.67;;;24.70;22.11
67373;BME280;54257;54.496;18.412;2023-05-12T11:58:25;100648.77;;;24.69;22.66
67373;BME280;54257;54.496;18.412;2023-05-12T12:00:53;100653.21;;;24.95;21.93
67373;BME280;54257;54.496;18.412;2023-05-12T12:03:20;100656.69;;;25.08;22.37
67373;BME280;54257;54.496;18.412;2023-05-12T12:05:59;100655.77;;;25.09;21.72
67373;BME280;54257;54.496;18.412;2023-05-12T12:08:26;100652.45;;;24.81;21.83
67373;BME280;54257;54.496;18.412;2023-05-12T12:10:53;100654.23;;;24.69;21.10
67373;BME280;54257;54.496;18.412;2023-05-12T12:13:21;100654.12;;;24.43;21.94
67373;BME280;54257;54.496;18.412;2023-05-12T12:15:49;100663.11;;;24.34;21.80
67373;BME280;54257;54.496;18.412;2023-05-12T12:18:17;100663.06;;;24.48;21.78
67373;BME280;54257;54.496;18.412;2023-05-12T12:20:47;100657.63;;;24.66;21.02
67373;BME280;54257;54.496;18.412;2023-05-12T12:23:14;100656.45;;;24.76;21.30
67373;BME280;54257;54.496;18.412;2023-05-12T12:25:42;100652.52;;;24.25;20.87
67373;BME280;54257;54.496;18.412;2023-05-12T12:28:09;100651.65;;;24.13;21.44
67373;BME280;54257;54.496;18.412;2023-05-12T12:30:36;100650.02;;;24.27;20.45
67373;BME280;54257;54.496;18.412;2023-05-12T12:33:02;100659.76;;;24.23;21.03
67373;BME280;54257;54.496;18.412;2023-05-12T12:35:32;100656.13;;;24.34;21.32
67373;BME280;54257;54.496;18.412;2023-05-12T12:37:58;100653.73;;;24.38;21.59
67373;BME280;54257;54.496;18.412;2023-05-12T12:40:26;100654.05;;;24.33;21.45
67373;BME280;54257;54.496;18.412;2023-05-12T12:42:53;100650.59;;;24.50;21.55
67373;BME280;54257;54.496;18.412;2023-05-12T12:45:20;100651.15;;;24.67;21.10
67373;BME280;54257;54.496;18.412;2023-05-12T12:47:47;100648.34;;;24.83;20.94
67373;BME280;54257;54.496;18.412;2023-05-12T12:50:13;100649.06;;;24.83;20.70
67373;BME280;54257;54.496;18.412;2023-05-12T12:52:40;100645.85;;;24.91;21.12
67373;BME280;54257;54.496;18.412;2023-05-12T12:55:08;100646.65;;;24.94;21.26